Time;durP1;ratioP1;P1;durP2;ratioP2;P2;SDS_P1;SDS_P2;PMS_P1;PMS_P2;Temp;Humidity;BMP_temperature;BMP_pressure;BME280_temperature;BME280_humidity;BME280_pressure;Samples;Min_cycle;Max_cycle;Signal;HPM_P1;HPM_P2
2023/06/03 00:00:05;;;;;;;35.35;20.73;;;14.70;99.90;;;;;;5075735;28;20027;-82
2023/06/03 00:02:31;;;;;;;33.75;20.17;;;14.60;99.90;;;;;;5101783;28;20792;-82
2023/06/03 00:05:00;;;;;;;34.85;21.42;;;14.60;99.90;;;;;;5116035;28;20028;-81
2023/06/03 00:07:27;;;;;;;31.23;19.90;;;14.60;99.90;;;;;;5108656;28;20035;-81
2023/06/03 00:09:53;;;;;;;27.48;19.05;;;14.50;99.90;;;;;;5087820;28;20051;-81
2023/06/03 00:12:19;;;;;;;32.05;19.95;;;14.40;99.90;;;;;;5099265;28;20073;-83
2023/06/03 00:14:46;;;;;;;30.30;20.33;;;14.40;99.90;;;;;;5104227;28;20016;-83
2023/06/03 00:17:12;;;;;;;27.83;19.75;;;14.40;99.90;;;;;;5107693;28;20073;-81
2023/06/03 00:19:40;;;;;;;31.77;20.15;;;14.40;99.90;;;;;;5102321;28;20019;-82
2023/06/03 00:22:07;;;;;;;36.83;21.98;;;14.40;99.90;;;;;;5100394;28;20024;-82
2023/06/03 00:24:33;;;;;;;25.10;18.98;;;14.30;99.90;;;;;;5100077;28;20072;-81
2023/06/03 00:26:59;;;;;;;28.48;20.02;;;14.20;99.90;;;;;;5108333;28;20043;-82
2023/06/03 00:29:25;;;;;;;29.40;17.63;;;14.10;99.90;;;;;;5094717;28;20012;-81
2023/06/03 00:31:52;;;;;;;18.03;14.20;;;14.20;99.90;;;;;;5093081;28;20054;-82
2023/06/03 00:34:18;;;;;;;17.83;13.25;;;14.20;99.90;;;;;;5099066;28;20348;-81
2023/06/03 00:36:44;;;;;;;18.92;14.80;;;14.10;99.90;;;;;;5098082;28;20391;-82
2023/06/03 00:39:10;;;;;;;14.30;12.90;;;14.10;99.90;;;;;;5093514;28;20511;-83
2023/06/03 00:41:36;;;;;;;18.13;12.65;;;14.10;99.90;;;;;;5107900;28;20099;-82
2023/06/03 00:44:02;;;;;;;15.95;12.38;;;14.10;99.90;;;;;;5086929;28;20092;-81
2023/06/03 00:46:32;;;;;;;14.23;11.07;;;14.10;99.90;;;;;;5099244;28;20500;-83
2023/06/03 00:48:58;;;;;;;13.82;10.45;;;14.10;99.90;;;;;;5103347;28;20025;-82
2023/06/03 00:51:24;;;;;;;13.27;10.38;;;14.10;99.90;;;;;;5095018;28;20086;-82
2023/06/03 00:53:50;;;;;;;14.32;10.93;;;14.00;99.90;;;;;;5094478;28;20039;-82
2023/06/03 00:56:18;;;;;;;14.85;11.57;;;14.10;99.90;;;;;;5106978;28;20019;-82
2023/06/03 00:58:44;;;;;;;14.75;10.65;;;14.10;99.90;;;;;;5092941;28;20512;-83
2023/06/03 01:01:11;;;;;;;13.88;10.95;;;14.10;99.90;;;;;;5105622;28;20054;-83
2023/06/03 01:03:41;;;;;;;16.10;12.23;;;14.00;99.90;;;;;;5093884;28;20127;-83
2023/06/03 01:06:27;;;;;;;15.68;12.63;;;14.00;99.90;;;;;;5104649;28;20044;-83
2023/06/03 01:09:04;;;;;;;13.98;11.27;;;13.90;99.90;;;;;;5092311;28;20038;-84
2023/06/03 01:11:42;;;;;;;17.92;12.82;;;13.90;99.90;;;;;;5092675;28;20050;-83
2023/06/03 01:14:36;;;;;;;14.70;13.10;;;13.80;99.90;;;;;;5092575;28;20028;-84
2023/06/03 01:17:09;;;;;;;14.77;13.27;;;13.60;99.90;;;;;;5106919;28;20024;-82
2023/06/03 01:19:49;;;;;;;13.32;11.55;;;13.50;99.90;;;;;;5103624;28;20028;-83
2023/06/03 01:22:24;;;;;;;15.63;12.52;;;13.30;99.90;;;;;;5098831;28;20088;-84
2023/06/03 01:24:50;;;;;;;17.35;13.68;;;13.20;99.90;;;;;;5101365;28;20032;-84
2023/06/03 01:27:20;;;;;;;14.43;12.18;;;13.20;99.90;;;;;;5074610;28;20032;-83
2023/06/03 01:29:47;;;;;;;14.73;11.77;;;13.10;99.90;;;;;;5106156;28;20076;-82
2023/06/03 01:32:17;;;;;;;18.20;13.32;;;13.10;99.90;;;;;;5106702;28;20449;-83
2023/06/03 01:34:44;;;;;;;15.07;12.23;;;13.00;99.90;;;;;;5120651;28;20019;-82
2023/06/03 01:37:10;;;;;;;16.85;10.65;;;13.00;99.90;;;;;;5112903;28;20092;-83
2023/06/03 01:39:40;;;;;;;12.47;10.77;;;12.90;99.90;;;;;;5104054;28;20047;-84
2023/06/03 01:42:10;;;;;;;13.23;11.13;;;12.90;99.90;;;;;;5093699;28;20688;-83
2023/06/03 01:44:37;;;;;;;17.83;12.43;;;12.90;99.90;;;;;;5109445;28;20088;-85
2023/06/03 01:47:04;;;;;;;19.53;13.77;;;12.90;99.90;;;;;;5104764;28;20043;-83
2023/06/03 01:49:31;;;;;;;24.70;13.30;;;12.80;99.90;;;;;;5074973;28;20024;-83
2023/06/03 01:52:01;;;;;;;16.08;12.23;;;12.80;99.90;;;;;;5113140;28;20270;-82
2023/06/03 01:54:28;;;;;;;18.63;13.00;;;12.70;99.90;;;;;;5099139;28;20044;-82
2023/06/03 01:56:55;;;;;;;15.65;11.80;;;12.60;99.90;;;;;;5095426;28;20028;-82
2023/06/03 01:59:23;;;;;;;19.63;12.30;;;12.50;99.90;;;;;;5101183;28;20522;-82
2023/06/03 02:01:58;;;;;;;15.90;12.05;;;12.40;99.90;;;;;;5096181;28;20054;-82
2023/06/03 02:04:26;;;;;;;15.25;11.13;;;12.40;99.90;;;;;;5103803;28;20028;-82
2023/06/03 02:06:58;;;;;;;15.73;10.25;;;12.40;99.90;;;;;;5117507;28;20027;-81
2023/06/03 02:09:25;;;;;;;17.23;11.50;;;12.40;99.90;;;;;;5119569;28;20050;-81
2023/06/03 02:11:52;;;;;;;19.42;11.90;;;12.30;99.90;;;;;;5115938;28;20077;-82
2023/06/03 02:14:18;;;;;;;16.53;12.93;;;12.40;99.90;;;;;;5119446;28;20015;-81
2023/06/03 02:16:44;;;;;;;17.55;12.10;;;12.50;99.90;;;;;;5106845;28;20028;-82
2023/06/03 02:19:19;;;;;;;17.17;12.80;;;12.50;99.90;;;;;;5083467;28;20038;-82
2023/06/03 02:21:45;;;;;;;14.30;12.38;;;12.50;99.90;;;;;;5101976;28;20102;-82
2023/06/03 02:24:16;;;;;;;13.00;11.40;;;12.30;99.90;;;;;;5114375;28;20123;-83
2023/06/03 02:26:53;;;;;;;14.73;10.02;;;12.30;99.90;;;;;;5096178;28;20043;-82
2023/06/03 02:29:22;;;;;;;12.45;9.23;;;12.30;99.90;;;;;;5096031;28;20385;-81
2023/06/03 02:31:48;;;;;;;9.55;7.43;;;12.30;99.90;;;;;;5096399;28;20111;-83
2023/06/03 02:34:15;;;;;;;10.70;6.87;;;12.20;99.90;;;;;;5100991;28;20541;-83
2023/06/03 02:36:42;;;;;;;6.68;5.82;;;12.30;99.90;;;;;;5101254;28;20057;-82
2023/06/03 02:39:09;;;;;;;13.30;5.63;;;12.20;99.90;;;;;;5086011;28;20034;-84
2023/06/03 02:41:35;;;;;;;8.15;4.80;;;12.10;99.90;;;;;;5109769;28;20024;-83
2023/06/03 02:44:02;;;;;;;6.90;5.07;;;12.00;99.90;;;;;;5095434;28;20050;-82
2023/06/03 02:46:27;;;;;;;7.00;5.80;;;11.90;99.90;;;;;;5098952;28;20434;-82
2023/06/03 02:48:54;;;;;;;8.82;5.63;;;11.80;99.90;;;;;;5105842;28;20065;-83
2023/06/03 02:51:20;;;;;;;6.28;5.25;;;11.80;99.90;;;;;;5095047;28;20515;-81
2023/06/03 02:53:45;;;;;;;7.10;5.35;;;11.80;99.90;;;;;;5095269;28;20067;-83
2023/06/03 02:56:11;;;;;;;7.45;4.15;;;11.80;99.90;;;;;;5077960;28;20046;-83
2023/06/03 02:58:37;;;;;;;5.45;4.50;;;11.80;99.90;;;;;;5110061;28;20012;-83
2023/06/03 03:01:03;;;;;;;6.78;4.38;;;11.70;99.90;;;;;;5107920;28;20027;-83
2023/06/03 03:03:30;;;;;;;5.72;4.30;;;11.70;99.90;;;;;;5098762;28;20035;-83
2023/06/03 03:05:57;;;;;;;5.22;3.78;;;11.60;99.90;;;;;;5108836;28;20043;-81
2023/06/03 03:08:23;;;;;;;;;;;11.60;99.90;;;;;;5100314;28;20082;-82
2023/06/03 03:10:49;;;;;;;4.30;3.90;;;11.60;99.90;;;;;;5104978;28;20361;-83
2023/06/03 03:13:15;;;;;;;4.10;3.28;;;11.60;99.90;;;;;;5100513;28;20031;-85
2023/06/03 03:15:41;;;;;;;3.88;3.35;;;11.60;99.90;;;;;;5100972;28;20020;-83
2023/06/03 03:18:07;;;;;;;3.78;2.60;;;11.60;99.90;;;;;;5101805;28;20024;-84
2023/06/03 03:20:32;;;;;;;2.97;2.10;;;11.60;99.90;;;;;;5094867;28;20017;-84
2023/06/03 03:22:59;;;;;;;4.22;2.40;;;11.50;99.90;;;;;;5097824;28;20107;-84
2023/06/03 03:25:25;;;;;;;2.65;1.65;;;11.50;99.90;;;;;;5097894;28;20031;-83
2023/06/03 03:27:51;;;;;;;2.80;1.60;;;11.30;99.90;;;;;;5106341;28;20100;-83
2023/06/03 03:30:17;;;;;;;2.65;1.85;;;11.30;99.90;;;;;;5120816;28;20020;-83
2023/06/03 03:32:42;;;;;;;2.33;1.45;;;11.30;99.90;;;;;;5109963;28;20077;-84
2023/06/03 03:35:13;;;;;;;1.73;1.45;;;11.30;99.90;;;;;;5112389;28;20102;-83
2023/06/03 03:37:39;;;;;;;1.88;1.50;;;11.20;99.90;;;;;;5095572;28;20481;-82
2023/06/03 03:40:19;;;;;;;3.42;2.35;;;11.30;99.90;;;;;;5079067;28;20032;-82
2023/06/03 03:42:49;;;;;;;1.75;1.45;;;11.20;99.90;;;;;;5099116;28;20051;-82
2023/06/03 03:45:17;;;;;;;2.20;1.70;;;11.10;99.90;;;;;;5095459;28;20027;-83
2023/06/03 03:47:44;;;;;;;1.98;1.50;;;11.10;99.90;;;;;;5108372;28;20059;-83
2023/06/03 03:50:42;;;;;;;3.37;1.50;;;11.10;99.90;;;;;;5094179;28;20024;-82
2023/06/03 03:53:26;;;;;;;2.25;1.90;;;11.10;99.90;;;;;;5097427;28;20031;-83
2023/06/03 03:55:56;;;;;;;2.55;2.00;;;11.20;99.90;;;;;;5101925;28;20491;-84
2023/06/03 03:58:25;;;;;;;2.67;1.58;;;11.20;99.90;;;;;;5105257;28;20030;-83
2023/06/03 04:00:52;;;;;;;2.05;1.65;;;11.20;99.90;;;;;;5106486;28;20020;-84
2023/06/03 04:03:19;;;;;;;;;;;11.20;99.90;;;;;;5097683;28;20493;-85
2023/06/03 04:05:47;;;;;;;3.47;1.70;;;11.30;99.90;;;;;;5088201;28;19912;-85
2023/06/03 04:08:29;;;;;;;2.00;1.80;;;11.20;99.90;;;;;;5096617;28;20021;-85
2023/06/03 04:10:59;;;;;;;3.85;1.90;;;11.20;99.90;;;;;;5121092;28;20016;-85
2023/06/03 04:13:25;;;;;;;3.92;2.58;;;11.20;99.90;;;;;;5115711;28;20042;-86
2023/06/03 04:15:51;;;;;;;1.65;1.40;;;11.20;99.90;;;;;;5103018;28;20036;-85
2023/06/03 04:18:19;;;;;;;3.55;1.75;;;11.20;99.90;;;;;;5100844;28;20424;-85
2023/06/03 04:20:48;;;;;;;4.40;1.98;;;11.20;99.90;;;;;;5094644;28;20030;-85
2023/06/03 04:23:16;;;;;;;1.73;1.60;;;11.20;99.90;;;;;;5108283;28;20012;-85
2023/06/03 04:25:43;;;;;;;2.45;1.83;;;11.10;99.90;;;;;;5109992;28;20035;-84
2023/06/03 04:28:12;;;;;;;3.42;1.70;;;11.10;99.90;;;;;;5088729;28;20024;-84
2023/06/03 04:30:38;;;;;;;2.55;1.70;;;11.00;99.90;;;;;;5106397;28;20023;-80
2023/06/03 04:33:04;;;;;;;3.45;1.58;;;11.00;99.90;;;;;;5109642;28;20041;-85
2023/06/03 04:35:30;;;;;;;2.15;1.52;;;11.10;99.90;;;;;;5119908;28;20020;-84
2023/06/03 04:37:58;;;;;;;3.97;2.67;;;11.10;99.90;;;;;;5093351;28;20043;-85
2023/06/03 04:40:26;;;;;;;3.88;2.15;;;11.10;99.90;;;;;;5119048;28;20043;-84
2023/06/03 04:42:53;;;;;;;2.92;1.92;;;11.10;99.90;;;;;;5098924;28;20043;-83
2023/06/03 04:45:23;;;;;;;5.50;2.30;;;10.90;99.90;;;;;;5094512;28;20030;-85
2023/06/03 04:48:01;;;;;;;4.15;2.08;;;11.00;99.90;;;;;;5099272;28;20035;-84
2023/06/03 04:50:34;;;;;;;4.03;2.58;;;11.20;99.90;;;;;;5093794;28;20024;-83
2023/06/03 04:53:00;;;;;;;2.95;2.00;;;11.20;99.90;;;;;;5092946;28;20042;-85
2023/06/03 04:55:27;;;;;;;3.78;2.55;;;11.20;99.90;;;;;;5077466;28;20044;-84
2023/06/03 04:57:54;;;;;;;;;;;11.20;99.90;;;;;;5095191;28;20047;-84
2023/06/03 05:00:21;;;;;;;3.70;2.55;;;11.20;99.90;;;;;;5099133;28;19907;-85
2023/06/03 05:02:54;;;;;;;7.05;2.97;;;11.20;99.90;;;;;;5110099;28;20465;-83
2023/06/03 05:05:29;;;;;;;3.33;2.70;;;11.30;99.90;;;;;;5102277;28;20110;-85
2023/06/03 05:07:55;;;;;;;4.50;2.63;;;11.30;99.90;;;;;;5110777;28;20028;-83
2023/06/03 05:10:21;;;;;;;3.35;2.67;;;11.40;99.90;;;;;;5112235;28;20061;-85
2023/06/03 05:12:47;;;;;;;3.13;2.40;;;11.40;99.90;;;;;;5107902;28;20059;-83
2023/06/03 05:15:13;;;;;;;4.38;2.67;;;11.40;99.90;;;;;;5108100;28;20024;-84
2023/06/03 05:17:39;;;;;;;2.55;2.10;;;11.40;99.90;;;;;;5103269;28;20023;-84
2023/06/03 05:20:09;;;;;;;3.88;2.88;;;11.40;99.90;;;;;;5099270;28;20388;-84
2023/06/03 05:22:36;;;;;;;4.25;2.20;;;11.40;99.90;;;;;;5096237;28;20050;-84
2023/06/03 05:25:04;;;;;;;2.85;2.40;;;11.40;99.90;;;;;;5101208;28;20088;-84
2023/06/03 05:27:30;;;;;;;3.70;2.55;;;11.30;99.90;;;;;;5094756;28;20538;-85
2023/06/03 05:29:56;;;;;;;2.83;2.30;;;11.40;99.90;;;;;;5110801;28;20016;-83
2023/06/03 05:32:22;;;;;;;4.70;2.38;;;11.40;99.90;;;;;;5100533;28;20042;-85
2023/06/03 05:34:48;;;;;;;3.50;2.35;;;11.30;99.90;;;;;;5086662;28;20016;-84
2023/06/03 05:37:14;;;;;;;4.80;3.03;;;11.30;99.90;;;;;;5099886;28;20020;-83
2023/06/03 05:39:40;;;;;;;3.85;2.92;;;11.30;99.90;;;;;;5094061;28;20061;-84
2023/06/03 05:42:06;;;;;;;3.55;3.13;;;11.20;99.90;;;;;;5108608;28;20035;-84
2023/06/03 05:44:32;;;;;;;7.75;3.20;;;11.20;99.90;;;;;;5103828;28;20068;-84
2023/06/03 05:47:00;;;;;;;3.25;2.78;;;11.20;99.90;;;;;;5117544;28;20034;-83
2023/06/03 05:49:27;;;;;;;3.80;3.30;;;11.30;99.90;;;;;;5102512;28;20020;-84
2023/06/03 05:51:52;;;;;;;2.95;2.63;;;11.40;99.90;;;;;;5096425;28;20028;-84
2023/06/03 05:54:18;;;;;;;4.40;3.35;;;11.30;99.90;;;;;;5090637;28;20112;-84
2023/06/03 05:56:44;;;;;;;4.80;3.00;;;11.20;99.90;;;;;;5111411;28;20032;-83
2023/06/03 05:59:10;;;;;;;5.03;3.25;;;11.20;99.90;;;;;;5106830;28;20023;-84
2023/06/03 06:01:36;;;;;;;6.38;3.65;;;11.20;99.90;;;;;;5101494;28;20089;-84
2023/06/03 06:04:05;;;;;;;5.28;3.33;;;11.30;99.90;;;;;;5107827;28;20032;-84
2023/06/03 06:06:31;;;;;;;4.43;3.22;;;11.30;99.90;;;;;;5097431;28;20034;-83
2023/06/03 06:08:56;;;;;;;4.72;3.97;;;11.30;99.90;;;;;;5088288;28;20083;-85
2023/06/03 06:11:22;;;;;;;4.55;4.05;;;11.40;99.90;;;;;;5086394;28;20032;-85
2023/06/03 06:13:48;;;;;;;6.95;4.18;;;11.40;99.90;;;;;;5095535;28;20016;-85
2023/06/03 06:16:14;;;;;;;7.50;4.63;;;11.50;99.90;;;;;;5102870;28;20024;-84
2023/06/03 06:18:40;;;;;;;6.07;4.40;;;11.50;99.90;;;;;;5103080;28;20028;-83
2023/06/03 06:21:06;;;;;;;5.97;4.53;;;11.50;99.90;;;;;;5109921;28;20015;-85
2023/06/03 06:23:32;;;;;;;5.10;4.53;;;11.40;99.90;;;;;;5109753;28;20050;-83
2023/06/03 06:25:57;;;;;;;5.35;4.28;;;11.30;99.90;;;;;;5112557;28;20032;-83
2023/06/03 06:28:27;;;;;;;6.50;4.50;;;11.20;99.90;;;;;;5104584;28;20073;-84
2023/06/03 06:30:54;;;;;;;7.78;5.07;;;11.10;99.90;;;;;;5116164;28;20051;-84
2023/06/03 06:33:20;;;;;;;5.85;5.03;;;11.10;99.90;;;;;;5111385;28;20039;-84
2023/06/03 06:35:46;;;;;;;6.88;5.30;;;11.10;99.90;;;;;;5099724;28;20024;-83
2023/06/03 06:38:14;;;;;;;6.43;5.10;;;11.10;99.90;;;;;;5101135;28;20023;-84
2023/06/03 06:40:40;;;;;;;;;;;11.00;99.90;;;;;;5101479;28;20079;-84
2023/06/03 06:43:15;;;;;;;5.70;4.15;;;10.90;99.90;;;;;;5102099;28;19915;-84
2023/06/03 06:45:41;;;;;;;5.68;5.13;;;10.70;99.90;;;;;;5088828;28;20417;-85
2023/06/03 06:48:08;;;;;;;6.75;4.30;;;10.70;99.90;;;;;;5099773;28;20016;-85
2023/06/03 06:50:39;;;;;;;;;;;10.60;99.90;;;;;;5111679;28;20011;-84
2023/06/03 06:53:06;;;;;;;5.70;4.20;;;10.60;99.90;;;;;;5124576;28;19963;-86
2023/06/03 06:55:41;;;;;;;8.18;4.53;;;10.60;99.90;;;;;;5119563;28;20098;-85
2023/06/03 06:58:10;;;;;;;6.35;5.43;;;10.40;99.90;;;;;;5103500;28;20503;-85
2023/06/03 07:00:37;;;;;;;6.32;4.90;;;10.20;99.90;;;;;;5121725;28;20125;-85
2023/06/03 07:03:03;;;;;;;3.63;3.05;;;10.10;99.90;;;;;;5098790;28;20034;-83
2023/06/03 07:05:28;;;;;;;7.97;5.03;;;10.00;99.90;;;;;;5105355;28;20536;-84
2023/06/03 07:07:54;;;;;;;7.78;4.47;;;9.90;99.90;;;;;;5097182;28;20024;-84
2023/06/03 07:10:21;;;;;;;7.50;4.07;;;9.80;99.90;;;;;;5111613;28;20024;-86
2023/06/03 07:12:51;;;;;;;7.50;4.35;;;9.80;99.90;;;;;;5097293;28;20028;-84
2023/06/03 07:15:20;;;;;;;6.30;4.18;;;9.80;99.90;;;;;;5110075;28;20099;-84
2023/06/03 07:17:53;;;;;;;5.03;3.72;;;9.70;99.90;;;;;;5113216;28;20080;-85
2023/06/03 07:20:41;;;;;;;7.50;4.53;;;9.70;99.90;;;;;;5116924;28;20020;-85
2023/06/03 07:23:12;;;;;;;5.32;4.07;;;9.70;99.90;;;;;;5118277;28;20055;-85
2023/06/03 07:25:47;;;;;;;4.35;3.70;;;9.60;99.90;;;;;;5117513;28;20032;-84
2023/06/03 07:28:22;;;;;;;4.55;3.40;;;9.60;99.90;;;;;;5110119;28;20012;-84
2023/06/03 07:30:49;;;;;;;4.30;3.28;;;9.50;99.90;;;;;;5098506;28;20028;-86
2023/06/03 07:33:29;;;;;;;5.68;3.30;;;9.40;99.90;;;;;;5101709;28;20087;-86
2023/06/03 07:35:57;;;;;;;4.43;2.80;;;9.30;99.90;;;;;;5110646;28;20031;-88
2023/06/03 07:38:32;;;;;;;4.18;2.85;;;9.40;99.90;;;;;;5080008;28;20115;-86
2023/06/03 07:40:58;;;;;;;2.80;2.30;;;9.60;99.90;;;;;;5104247;28;20031;-85
2023/06/03 07:43:25;;;;;;;4.20;2.40;;;9.60;99.90;;;;;;5118556;28;20020;-86
2023/06/03 07:45:50;;;;;;;6.72;2.58;;;9.70;99.90;;;;;;5100343;28;20118;-86
2023/06/03 07:48:16;;;;;;;5.30;2.60;;;9.60;99.90;;;;;;5099595;28;20090;-86
2023/06/03 07:50:45;;;;;;;5.75;2.47;;;9.50;99.90;;;;;;5102155;28;20603;-88
2023/06/03 07:53:22;;;;;;;2.10;1.90;;;9.40;99.90;;;;;;5097202;28;20129;-86
2023/06/03 07:55:48;;;;;;;2.17;1.83;;;9.40;99.90;;;;;;5109820;28;20043;-86
2023/06/03 07:58:15;;;;;;;1.85;1.27;;;9.40;99.90;;;;;;5105445;28;20090;-85
2023/06/03 08:00:54;;;;;;;3.20;1.85;;;9.30;99.90;;;;;;5102076;28;20044;-84
2023/06/03 08:03:25;;;;;;;2.88;1.50;;;9.10;99.90;;;;;;5094139;28;20107;-84
2023/06/03 08:05:51;;;;;;;2.70;1.75;;;9.10;99.90;;;;;;5087458;28;20077;-85
2023/06/03 08:08:30;;;;;;;2.35;1.95;;;9.00;99.90;;;;;;5102953;28;20024;-82
2023/06/03 08:10:56;;;;;;;2.38;1.80;;;9.00;99.90;;;;;;5123508;28;20075;-86
2023/06/03 08:13:22;;;;;;;3.53;1.63;;;9.00;99.90;;;;;;5111525;28;20489;-87
2023/06/03 08:15:48;;;;;;;3.22;1.70;;;9.00;99.90;;;;;;5088389;28;20031;-84
2023/06/03 08:18:39;;;;;;;5.47;1.88;;;8.90;99.90;;;;;;5120944;28;20016;-84
2023/06/03 08:21:05;;;;;;;2.60;1.83;;;8.90;99.90;;;;;;5082927;28;20533;-83
2023/06/03 08:23:32;;;;;;;3.95;2.63;;;8.90;99.90;;;;;;5087097;28;20012;-84
2023/06/03 08:25:59;;;;;;;3.15;1.95;;;8.80;99.90;;;;;;5104388;28;20028;-84
2023/06/03 08:28:25;;;;;;;5.22;2.58;;;8.80;99.90;;;;;;5105015;28;20052;-82
2023/06/03 08:30:53;;;;;;;3.70;1.95;;;8.80;99.90;;;;;;5095352;28;20024;-83
2023/06/03 08:33:19;;;;;;;4.80;2.50;;;8.70;99.90;;;;;;5097829;28;20030;-82
2023/06/03 08:35:45;;;;;;;4.63;2.65;;;8.60;99.90;;;;;;5108021;28;20024;-83
2023/06/03 08:38:12;;;;;;;4.03;3.35;;;8.60;99.90;;;;;;5109247;28;20024;-84
2023/06/03 08:40:45;;;;;;;4.22;2.38;;;8.60;99.90;;;;;;5078421;28;20032;-83
2023/06/03 08:43:11;;;;;;;3.92;2.20;;;8.60;99.90;;;;;;5101818;28;20072;-85
2023/06/03 08:45:55;;;;;;;3.22;2.05;;;8.50;99.90;;;;;;5108259;28;20540;-85
2023/06/03 08:48:36;;;;;;;4.00;2.30;;;8.50;99.90;;;;;;5096324;28;20122;-86
2023/06/03 08:51:06;;;;;;;4.70;3.00;;;8.70;99.90;;;;;;5082281;28;20020;-83
2023/06/03 08:53:44;;;;;;;7.00;2.22;;;8.70;99.90;;;;;;5112369;28;20024;-82
2023/06/03 08:56:12;;;;;;;3.75;1.90;;;8.80;99.90;;;;;;5095175;28;20034;-83
2023/06/03 08:58:43;;;;;;;4.95;2.30;;;8.80;99.90;;;;;;5096135;28;20103;-83
2023/06/03 09:01:11;;;;;;;3.30;1.58;;;8.80;99.90;;;;;;5102428;28;20031;-85
2023/06/03 09:03:41;;;;;;;2.72;1.50;;;8.70;99.90;;;;;;5106656;28;20076;-82
2023/06/03 09:06:07;;;;;;;1.73;1.40;;;8.60;99.90;;;;;;5097842;28;20039;-83
2023/06/03 09:08:35;;;;;;;4.03;1.90;;;8.40;99.90;;;;;;5104825;28;20023;-82
2023/06/03 09:11:02;;;;;;;2.13;1.58;;;8.40;99.90;;;;;;5088400;28;20030;-84
2023/06/03 09:13:31;;;;;;;3.72;1.70;;;8.50;99.90;;;;;;5126583;28;20015;-83
2023/06/03 09:16:01;;;;;;;1.92;1.45;;;8.50;99.90;;;;;;5097961;28;20382;-81
2023/06/03 09:18:31;;;;;;;3.33;1.30;;;8.50;99.90;;;;;;5098725;28;20028;-81
2023/06/03 09:20:57;;;;;;;6.13;1.38;;;8.50;99.90;;;;;;5099916;28;20106;-80
2023/06/03 09:23:25;;;;;;;2.40;1.73;;;8.50;99.90;;;;;;5106809;28;20502;-80
2023/06/03 09:25:51;;;;;;;2.03;1.48;;;8.50;99.90;;;;;;5107851;28;20039;-83
2023/06/03 09:28:17;;;;;;;4.43;1.58;;;8.50;99.90;;;;;;5077558;28;20032;-82
2023/06/03 09:30:44;;;;;;;3.30;1.80;;;8.50;99.90;;;;;;5098566;28;20053;-82
2023/06/03 09:33:10;;;;;;;4.25;1.80;;;8.70;99.90;;;;;;5098284;28;20020;-82
2023/06/03 09:35:35;;;;;;;5.78;2.30;;;8.70;99.90;;;;;;5100550;28;20028;-82
2023/06/03 09:38:04;;;;;;;3.72;2.05;;;8.80;99.90;;;;;;5098601;28;20515;-82
2023/06/03 09:40:32;;;;;;;4.45;1.80;;;8.80;99.90;;;;;;5094788;28;20031;-84
2023/06/03 09:42:58;;;;;;;4.90;2.38;;;8.80;99.90;;;;;;5077904;28;20031;-84
2023/06/03 09:45:32;;;;;;;3.67;2.47;;;8.80;99.90;;;;;;5102957;28;20027;-82
2023/06/03 09:48:01;;;;;;;2.28;1.50;;;8.80;99.90;;;;;;5100811;28;20141;-82
2023/06/03 09:50:30;;;;;;;3.83;1.48;;;8.80;99.90;;;;;;5096488;28;20069;-82
2023/06/03 09:52:57;;;;;;;5.13;1.60;;;8.70;99.90;;;;;;5109053;28;20024;-83
2023/06/03 09:55:35;;;;;;;3.30;1.20;;;8.70;99.90;;;;;;5100347;28;20050;-82
2023/06/03 09:58:06;;;;;;;3.03;1.38;;;8.70;99.90;;;;;;5103939;28;20028;-82
2023/06/03 10:00:56;;;;;;;6.35;2.33;;;8.80;99.90;;;;;;5099778;28;20039;-82
2023/06/03 10:03:23;;;;;;;2.17;1.63;;;8.80;99.90;;;;;;5095840;28;20023;-84
2023/06/03 10:05:49;;;;;;;2.88;1.40;;;8.90;99.90;;;;;;5102967;28;20097;-82
2023/06/03 10:08:28;;;;;;;2.78;1.60;;;8.90;99.90;;;;;;5097873;28;20425;-83
2023/06/03 10:10:55;;;;;;;2.08;1.00;;;8.90;99.90;;;;;;5097965;28;20020;-84
2023/06/03 10:13:22;;;;;;;3.08;1.42;;;9.00;99.90;;;;;;5098962;28;20468;-82
2023/06/03 10:15:49;;;;;;;3.43;2.00;;;8.90;99.90;;;;;;5106677;28;20088;-84
2023/06/03 10:18:16;;;;;;;2.10;1.55;;;9.10;99.90;;;;;;5103851;28;20110;-86
2023/06/03 10:20:43;;;;;;;3.03;1.80;;;9.30;99.90;;;;;;5101861;28;20039;-84
2023/06/03 10:23:11;;;;;;;2.53;1.83;;;9.30;99.90;;;;;;5100361;28;20054;-85
2023/06/03 10:25:46;;;;;;;4.65;1.63;;;9.30;99.90;;;;;;5100305;28;20460;-84
2023/06/03 10:28:14;;;;;;;4.38;1.80;;;9.30;99.90;;;;;;5108734;28;20076;-83
2023/06/03 10:30:41;;;;;;;4.82;2.35;;;9.20;99.90;;;;;;5102202;28;20035;-83
2023/06/03 10:33:08;;;;;;;2.67;1.88;;;9.10;99.90;;;;;;5099705;28;20588;-83
2023/06/03 10:35:38;;;;;;;2.17;1.73;;;9.10;99.90;;;;;;5114551;28;20020;-82
2023/06/03 10:38:06;;;;;;;4.72;2.40;;;9.10;99.90;;;;;;5097135;28;20085;-82
2023/06/03 10:40:32;;;;;;;4.68;2.53;;;9.10;99.90;;;;;;5103564;28;20024;-83
2023/06/03 10:42:58;;;;;;;3.75;2.28;;;9.00;99.90;;;;;;5095553;28;20036;-83
2023/06/03 10:45:27;;;;;;;3.78;1.88;;;9.00;99.90;;;;;;5110730;28;20043;-85
2023/06/03 10:48:00;;;;;;;3.33;1.73;;;9.00;99.90;;;;;;5103502;28;20035;-79
2023/06/03 10:50:47;;;;;;;3.60;2.28;;;9.00;99.90;;;;;;5101832;28;20032;-79
2023/06/03 10:53:39;;;;;;;5.00;2.55;;;8.90;99.90;;;;;;5103784;28;20436;-80
2023/06/03 10:56:16;;;;;;;2.92;1.55;;;8.80;99.90;;;;;;5102431;28;20456;-78
2023/06/03 10:58:44;;;;;;;2.47;1.60;;;8.70;99.90;;;;;;5094963;28;20031;-78
2023/06/03 11:01:10;;;;;;;5.03;2.20;;;8.60;99.90;;;;;;5098569;28;20015;-79
2023/06/03 11:03:59;;;;;;;2.85;1.67;;;8.50;99.90;;;;;;5098215;28;20031;-80
2023/06/03 11:06:28;;;;;;;2.75;1.80;;;8.60;99.90;;;;;;5101016;28;20086;-79
2023/06/03 11:09:12;;;;;;;5.13;2.20;;;8.60;99.90;;;;;;5110420;28;20027;-78
2023/06/03 11:11:41;;;;;;;5.10;2.38;;;8.80;99.90;;;;;;5098603;28;20421;-83
2023/06/03 11:14:25;;;;;;;2.60;1.80;;;9.00;99.90;;;;;;5097856;28;20073;-82
2023/06/03 11:17:00;;;;;;;2.13;1.73;;;8.90;99.90;;;;;;5098536;28;20024;-80
2023/06/03 11:19:37;;;;;;;3.30;2.17;;;8.80;99.90;;;;;;5096425;28;20453;-80
2023/06/03 11:22:07;;;;;;;2.15;1.65;;;8.80;99.90;;;;;;5101280;28;20067;-84
2023/06/03 11:24:42;;;;;;;4.97;1.80;;;8.50;99.90;;;;;;5078846;28;20028;-83
2023/06/03 11:27:14;;;;;;;3.33;2.10;;;8.40;99.90;;;;;;5076865;28;20493;-82
2023/06/03 11:29:46;;;;;;;4.63;2.10;;;8.20;99.90;;;;;;5101616;28;20020;-83
2023/06/03 11:32:12;;;;;;;4.03;1.83;;;8.10;99.90;;;;;;5095873;28;20052;-81
2023/06/03 11:34:38;;;;;;;4.03;1.92;;;8.10;99.90;;;;;;5094476;28;20483;-81
2023/06/03 11:37:04;;;;;;;3.00;1.90;;;8.10;99.90;;;;;;5098075;28;20020;-83
2023/06/03 11:40:05;;;;;;;5.03;2.05;;;8.20;99.90;;;;;;5090354;28;20028;-82
2023/06/03 11:42:46;;;;;;;5.22;2.08;;;8.30;99.90;;;;;;5094829;28;20032;-81
2023/06/03 11:45:24;;;;;;;4.45;2.08;;;8.40;99.90;;;;;;5091784;28;20020;-81
2023/06/03 11:47:52;;;;;;;;;;;8.30;99.90;;;;;;5098589;28;20119;-81
2023/06/03 11:50:19;;;;;;;1.88;1.10;;;8.30;99.70;;;;;;5093519;28;19908;-80
2023/06/03 11:52:45;;;;;;;4.35;1.98;;;8.20;98.80;;;;;;5104204;28;21328;-79
2023/06/03 11:55:21;;;;;;;3.53;1.70;;;8.30;99.30;;;;;;5101669;28;20090;-79
2023/06/03 11:57:46;;;;;;;2.42;1.52;;;8.40;99.20;;;;;;5075123;28;20024;-78
2023/06/03 12:00:13;;;;;;;4.40;1.40;;;8.60;98.90;;;;;;5100660;28;20046;-78
2023/06/03 12:02:41;;;;;;;3.13;1.63;;;8.80;98.60;;;;;;5095304;28;20031;-77
2023/06/03 12:05:08;;;;;;;3.00;2.08;;;9.00;97.90;;;;;;5095862;28;20356;-78
2023/06/03 12:07:34;;;;;;;2.80;1.83;;;9.10;98.00;;;;;;5100524;28;20112;-78
2023/06/03 12:10:00;;;;;;;4.68;1.83;;;9.30;97.70;;;;;;5098336;28;20047;-79
2023/06/03 12:12:26;;;;;;;3.67;1.70;;;9.30;97.50;;;;;;5105831;28;20469;-78
2023/06/03 12:14:52;;;;;;;3.70;2.30;;;9.20;97.10;;;;;;5088890;28;20069;-78
2023/06/03 12:17:19;;;;;;;4.93;2.30;;;9.20;97.60;;;;;;5097670;28;20107;-79
2023/06/03 12:19:46;;;;;;;;;;;9.20;97.40;;;;;;5099602;28;20044;-80
2023/06/03 12:22:13;;;;;;;1.35;1.10;;;9.10;97.40;;;;;;5096587;28;19934;-81
2023/06/03 12:24:43;;;;;;;2.55;1.65;;;8.90;97.10;;;;;;5113299;28;20429;-82
2023/06/03 12:27:16;;;;;;;1.63;1.30;;;8.70;97.20;;;;;;5102624;28;20066;-81
2023/06/03 12:29:56;;;;;;;1.98;1.52;;;8.60;97.30;;;;;;5114267;28;20030;-81
2023/06/03 12:32:28;;;;;;;2.42;1.48;;;8.50;97.40;;;;;;5108703;28;20022;-81
2023/06/03 12:34:55;;;;;;;3.47;1.77;;;8.50;97.60;;;;;;5098020;28;20020;-79
2023/06/03 12:37:29;;;;;;;1.58;1.30;;;8.50;97.90;;;;;;5098248;28;20020;-82
2023/06/03 12:39:56;;;;;;;1.80;1.05;;;8.60;98.10;;;;;;5095438;28;20469;-79
2023/06/03 12:42:38;;;;;;;2.58;1.50;;;8.70;97.90;;;;;;5092947;28;20032;-80
2023/06/03 12:45:05;;;;;;;5.03;1.52;;;8.70;97.70;;;;;;5105678;28;20020;-78
2023/06/03 12:47:45;;;;;;;2.85;1.67;;;8.80;97.50;;;;;;5111680;28;20035;-76
2023/06/03 12:50:14;;;;;;;2.88;2.10;;;8.90;97.50;;;;;;5102067;28;20026;-76
2023/06/03 12:52:41;;;;;;;2.50;1.67;;;8.90;97.60;;;;;;5098275;28;20112;-77
2023/06/03 12:55:13;;;;;;;2.63;1.50;;;9.00;97.60;;;;;;5094264;28;20063;-77
2023/06/03 12:57:41;;;;;;;5.55;1.85;;;9.00;97.40;;;;;;5107823;28;20027;-78
2023/06/03 13:00:18;;;;;;;3.78;1.95;;;9.10;97.30;;;;;;5093363;28;20084;-76